Rodney Mitchell — WCV8372 — position and weather

sailwx.info

Track history (hours):
 
Tides and Currents Weather Stations Pressure Air Temp Water Temp Dewpoint Dewpoint Depression Visibility Wind Speed Wind Dir Waves Ship Positions

Rodney Mitchell

Owner: VINTON CROSBY INC, GOLDEN MEADOW, LA. More information available from US FCC via Universal Licensing System and Coast Guard Vessel Documentation Center.

Last reported at 2014-Sep-30 09:28 UTC. Time now 2014-Oct-01 22:19 UTC.
Position N 29°31' W 094°53'.

; draft 3 m.

Type: Towing. MMSI: 367028860.

Date/timePositionNaut miles runAvg speedWind from/ knotsBaromVisibWave heightAir tempDewpointWater temp
2014-Sep-30 09:28N 29°31' W 094°53'5 5.3
2014-Sep-30 08:33N 29°36' W 094°57'5 5.5
2014-Sep-30 07:33N 29°41' W 094°59'5 4.9
2014-Sep-30 06:33N 29°44' W 095°03'3 2.6
2014-Sep-30 05:12N 29°47' W 095°04'0 0.0
2014-Sep-30 00:06N 29°48' W 095°04'0 0.0
2014-Sep-29 23:33N 29°48' W 095°04'0 0.0
2014-Sep-29 22:33N 29°48' W 095°04'0 0.0
2014-Sep-29 21:33N 29°48' W 095°04'0 0.0
2014-Sep-29 20:32N 29°48' W 095°04'1 0.7
2014-Sep-29 19:31N 29°47' W 095°04'5 5.4
2014-Sep-29 18:33N 29°44' W 095°09'4 4.3
2014-Sep-29 17:31N 29°43' W 095°14'3 3.5
2014-Sep-29 16:33N 29°45' W 095°11'4 4.1
2014-Sep-29 15:33N 29°45' W 095°06'2 1.5
2014-Sep-29 14:33N 29°46' W 095°06'3 0.2
2014-Sep-29 00:24N 29°44' W 095°08'4 4.8
2014-Sep-28 23:33N 29°43' W 095°13'2 1.5
2014-Sep-28 22:32N 29°43' W 095°15'0 0.0
2014-Sep-28 21:33N 29°43' W 095°15'0 0.0
2014-Sep-28 20:33N 29°43' W 095°15'0 0.0
2014-Sep-28 19:32N 29°43' W 095°15'0 0.0
2014-Sep-28 18:33N 29°43' W 095°15'0 0.0
2014-Sep-28 17:33N 29°43' W 095°15'0 0.0
2014-Sep-28 16:33N 29°43' W 095°15'0 0.0
2014-Sep-28 15:32N 29°43' W 095°15'0 0.0
2014-Sep-28 14:33N 29°43' W 095°15'0 0.0
2014-Sep-28 13:33N 29°43' W 095°15'0 0.0
2014-Sep-28 03:29N 29°43' W 095°15'0 0.0
2014-Sep-28 02:33N 29°43' W 095°15'0 0.0
2014-Sep-28 01:33N 29°43' W 095°15'0 0.0
2014-Sep-28 00:29N 29°43' W 095°15'0 0.0
2014-Sep-27 23:33N 29°43' W 095°15'2 1.4
2014-Sep-27 22:30N 29°43' W 095°13'3 3.1
2014-Sep-27 21:32N 29°45' W 095°10'4 4.5
2014-Sep-27 20:33N 29°46' W 095°05'5 4.5
2014-Sep-27 19:33N 29°43' W 095°01'4 4.4
2014-Sep-27 18:33N 29°39' W 094°58'5 5.2
2014-Sep-27 17:33N 29°34' W 094°56'5 4.8
2014-Sep-27 16:33N 29°30' W 094°52'5 4.8
2014-Sep-27 15:32N 29°26' W 094°50'5 4.0
2014-Sep-27 14:12N 29°21' W 094°49'4 5.0
2014-Sep-27 13:22N 29°18' W 094°53'4 4.2
2014-Sep-27 12:30N 29°17' W 094°57'  
2014-Sep-23 05:33N 29°44' W 095°03'3 0.6
2014-Sep-23 00:08N 29°48' W 095°04'0 0.0
2014-Sep-22 23:33N 29°48' W 095°04'0 0.0
2014-Sep-22 22:33N 29°48' W 095°04'0 0.0
2014-Sep-22 21:33N 29°48' W 095°04'0 0.0
2014-Sep-22 20:33N 29°48' W 095°04'0 0.0
2014-Sep-22 19:33N 29°48' W 095°04'0 0.0
2014-Sep-22 18:33N 29°48' W 095°04'0 0.0
2014-Sep-22 17:32N 29°48' W 095°04'0 0.0
2014-Sep-22 16:33N 29°48' W 095°04'0 0.0
2014-Sep-22 15:33N 29°48' W 095°04'0 0.0
2014-Sep-22 14:33N 29°48' W 095°04'0 0.0
2014-Sep-22 13:33N 29°48' W 095°04'0 0.0
2014-Sep-22 12:33N 29°48' W 095°04'0 0.0
2014-Sep-22 06:11N 29°48' W 095°04'0 0.2
2014-Sep-22 05:32N 29°47' W 095°04'5 4.5
2014-Sep-22 04:29N 29°44' W 095°08'5 5.1
2014-Sep-22 03:30N 29°43' W 095°13'1 1.0
2014-Sep-22 02:21N 29°43' W 095°15'0 0.0
2014-Sep-22 00:28N 29°43' W 095°15'0 0.0
2014-Sep-21 23:33N 29°43' W 095°15'0 0.0
2014-Sep-21 22:33N 29°43' W 095°15'0 0.0
2014-Sep-21 21:33N 29°43' W 095°15'0 0.0
2014-Sep-21 20:33N 29°43' W 095°15'0 0.0
2014-Sep-21 19:33N 29°43' W 095°15'0 0.0
2014-Sep-21 18:33N 29°43' W 095°15'0 0.0
2014-Sep-21 17:33N 29°43' W 095°15'0 0.0
2014-Sep-21 16:33N 29°43' W 095°15'0 0.0
2014-Sep-21 15:33N 29°43' W 095°15'0 0.0
2014-Sep-21 14:33N 29°43' W 095°15'0 0.0
2014-Sep-21 13:33N 29°43' W 095°15'0 0.0
2014-Sep-21 12:33N 29°43' W 095°15'0 0.0
2014-Sep-21 11:14N 29°43' W 095°15'0 0.0
2014-Sep-21 10:33N 29°43' W 095°15'0 0.0
2014-Sep-21 09:18N 29°43' W 095°15'0 0.1
2014-Sep-21 08:31N 29°43' W 095°15'4 4.0
2014-Sep-21 07:25N 29°45' W 095°10'4 4.4
2014-Sep-21 06:33N 29°46' W 095°06'1 0.2
2014-Sep-21 00:24N 29°47' W 095°06'0 0.0
2014-Sep-20 23:33N 29°47' W 095°06'0 0.0
2014-Sep-20 22:33N 29°47' W 095°06'0 0.0
2014-Sep-20 21:33N 29°47' W 095°06'0 0.0
2014-Sep-20 20:32N 29°47' W 095°06'0 0.0
2014-Sep-20 19:33N 29°47' W 095°06'0 0.0
2014-Sep-20 18:33N 29°47' W 095°06'0 0.0
2014-Sep-20 17:33N 29°47' W 095°06'0 0.0
2014-Sep-20 16:33N 29°47' W 095°06'0 0.0
2014-Sep-20 15:33N 29°47' W 095°06'0 0.0
2014-Sep-20 14:33N 29°47' W 095°06'0 0.0
2014-Sep-20 13:33N 29°47' W 095°06'0 0.0
2014-Sep-20 12:33N 29°47' W 095°06'0 0.0
2014-Sep-20 11:33N 29°47' W 095°06'0 0.0
2014-Sep-20 10:29N 29°47' W 095°06'  
Track history (hours):
 
Tides and Currents Weather Stations Pressure Air Temp Water Temp Dewpoint Dewpoint Depression Visibility Wind Speed Wind Dir Waves Ship Positions

Rodney Mitchell

Owner: VINTON CROSBY INC, GOLDEN MEADOW, LA. More information available from US FCC via Universal Licensing System and Coast Guard Vessel Documentation Center.

Last reported at 2014-Sep-30 09:28 UTC. Time now 2014-Oct-01 22:19 UTC.
Position N 29°31' W 094°53'.

; draft 3 m.

Type: Towing. MMSI: 367028860.

Date/timePositionNaut miles runAvg speedWind from/ knotsBaromVisibWave heightAir tempDewpointWater temp
2014-Sep-30 09:28N 29°31' W 094°53'5 5.3
2014-Sep-30 08:33N 29°36' W 094°57'5 5.5
2014-Sep-30 07:33N 29°41' W 094°59'5 4.9
2014-Sep-30 06:33N 29°44' W 095°03'3 2.6
2014-Sep-30 05:12N 29°47' W 095°04'0 0.0
2014-Sep-30 00:06N 29°48' W 095°04'0 0.0
2014-Sep-29 23:33N 29°48' W 095°04'0 0.0
2014-Sep-29 22:33N 29°48' W 095°04'0 0.0
2014-Sep-29 21:33N 29°48' W 095°04'0 0.0
2014-Sep-29 20:32N 29°48' W 095°04'1 0.7
2014-Sep-29 19:31N 29°47' W 095°04'5 5.4
2014-Sep-29 18:33N 29°44' W 095°09'4 4.3
2014-Sep-29 17:31N 29°43' W 095°14'3 3.5
2014-Sep-29 16:33N 29°45' W 095°11'4 4.1
2014-Sep-29 15:33N 29°45' W 095°06'2 1.5
2014-Sep-29 14:33N 29°46' W 095°06'3 0.2
2014-Sep-29 00:24N 29°44' W 095°08'4 4.8
2014-Sep-28 23:33N 29°43' W 095°13'2 1.5
2014-Sep-28 22:32N 29°43' W 095°15'0 0.0
2014-Sep-28 21:33N 29°43' W 095°15'0 0.0
2014-Sep-28 20:33N 29°43' W 095°15'0 0.0
2014-Sep-28 19:32N 29°43' W 095°15'0 0.0
2014-Sep-28 18:33N 29°43' W 095°15'0 0.0
2014-Sep-28 17:33N 29°43' W 095°15'0 0.0
2014-Sep-28 16:33N 29°43' W 095°15'0 0.0
2014-Sep-28 15:32N 29°43' W 095°15'0 0.0
2014-Sep-28 14:33N 29°43' W 095°15'0 0.0
2014-Sep-28 13:33N 29°43' W 095°15'0 0.0
2014-Sep-28 03:29N 29°43' W 095°15'0 0.0
2014-Sep-28 02:33N 29°43' W 095°15'0 0.0
2014-Sep-28 01:33N 29°43' W 095°15'0 0.0
2014-Sep-28 00:29N 29°43' W 095°15'0 0.0
2014-Sep-27 23:33N 29°43' W 095°15'2 1.4
2014-Sep-27 22:30N 29°43' W 095°13'3 3.1
2014-Sep-27 21:32N 29°45' W 095°10'4 4.5
2014-Sep-27 20:33N 29°46' W 095°05'5 4.5
2014-Sep-27 19:33N 29°43' W 095°01'4 4.4
2014-Sep-27 18:33N 29°39' W 094°58'5 5.2
2014-Sep-27 17:33N 29°34' W 094°56'5 4.8
2014-Sep-27 16:33N 29°30' W 094°52'5 4.8
2014-Sep-27 15:32N 29°26' W 094°50'5 4.0
2014-Sep-27 14:12N 29°21' W 094°49'4 5.0
2014-Sep-27 13:22N 29°18' W 094°53'4 4.2
2014-Sep-27 12:30N 29°17' W 094°57'  
2014-Sep-23 05:33N 29°44' W 095°03'3 0.6
2014-Sep-23 00:08N 29°48' W 095°04'0 0.0
2014-Sep-22 23:33N 29°48' W 095°04'0 0.0
2014-Sep-22 22:33N 29°48' W 095°04'0 0.0
2014-Sep-22 21:33N 29°48' W 095°04'0 0.0
2014-Sep-22 20:33N 29°48' W 095°04'0 0.0
2014-Sep-22 19:33N 29°48' W 095°04'0 0.0
2014-Sep-22 18:33N 29°48' W 095°04'0 0.0
2014-Sep-22 17:32N 29°48' W 095°04'0 0.0
2014-Sep-22 16:33N 29°48' W 095°04'0 0.0
2014-Sep-22 15:33N 29°48' W 095°04'0 0.0
2014-Sep-22 14:33N 29°48' W 095°04'0 0.0
2014-Sep-22 13:33N 29°48' W 095°04'0 0.0
2014-Sep-22 12:33N 29°48' W 095°04'0 0.0
2014-Sep-22 06:11N 29°48' W 095°04'0 0.2
2014-Sep-22 05:32N 29°47' W 095°04'5 4.5
2014-Sep-22 04:29N 29°44' W 095°08'5 5.1
2014-Sep-22 03:30N 29°43' W 095°13'1 1.0
2014-Sep-22 02:21N 29°43' W 095°15'0 0.0
2014-Sep-22 00:28N 29°43' W 095°15'0 0.0
2014-Sep-21 23:33N 29°43' W 095°15'0 0.0
2014-Sep-21 22:33N 29°43' W 095°15'0 0.0
2014-Sep-21 21:33N 29°43' W 095°15'0 0.0
2014-Sep-21 20:33N 29°43' W 095°15'0 0.0
2014-Sep-21 19:33N 29°43' W 095°15'0 0.0
2014-Sep-21 18:33N 29°43' W 095°15'0 0.0
2014-Sep-21 17:33N 29°43' W 095°15'0 0.0
2014-Sep-21 16:33N 29°43' W 095°15'0 0.0
2014-Sep-21 15:33N 29°43' W 095°15'0 0.0
2014-Sep-21 14:33N 29°43' W 095°15'0 0.0
2014-Sep-21 13:33N 29°43' W 095°15'0 0.0
2014-Sep-21 12:33N 29°43' W 095°15'0 0.0
2014-Sep-21 11:14N 29°43' W 095°15'0 0.0
2014-Sep-21 10:33N 29°43' W 095°15'0 0.0
2014-Sep-21 09:18N 29°43' W 095°15'0 0.1
2014-Sep-21 08:31N 29°43' W 095°15'4 4.0
2014-Sep-21 07:25N 29°45' W 095°10'4 4.4
2014-Sep-21 06:33N 29°46' W 095°06'1 0.2
2014-Sep-21 00:24N 29°47' W 095°06'0 0.0
2014-Sep-20 23:33N 29°47' W 095°06'0 0.0
2014-Sep-20 22:33N 29°47' W 095°06'0 0.0
2014-Sep-20 21:33N 29°47' W 095°06'0 0.0
2014-Sep-20 20:32N 29°47' W 095°06'0 0.0
2014-Sep-20 19:33N 29°47' W 095°06'0 0.0
2014-Sep-20 18:33N 29°47' W 095°06'0 0.0
2014-Sep-20 17:33N 29°47' W 095°06'0 0.0
2014-Sep-20 16:33N 29°47' W 095°06'0 0.0
2014-Sep-20 15:33N 29°47' W 095°06'0 0.0
2014-Sep-20 14:33N 29°47' W 095°06'0 0.0
2014-Sep-20 13:33N 29°47' W 095°06'0 0.0
2014-Sep-20 12:33N 29°47' W 095°06'0 0.0
2014-Sep-20 11:33N 29°47' W 095°06'0 0.0
2014-Sep-20 10:29N 29°47' W 095°06'  

Dump ship's entire track history